Time;durP1;ratioP1;P1;durP2;ratioP2;P2;SDS_P1;SDS_P2;PMS_P1;PMS_P2;Temp;Humidity;BMP_temperature;BMP_pressure;BME280_temperature;BME280_humidity;BME280_pressure;Samples;Min_cycle;Max_cycle;Signal;HPM_P1;HPM_P2
2023/01/08 00:01:45;;;;;;;0.70;0.70;;;;;;;7.36;88.69;99724.47;5114906;28;20122;-66
2023/01/08 00:04:16;;;;;;;1.02;0.95;;;;;;;7.36;89.18;99724.47;5114920;28;20036;-66
2023/01/08 00:06:47;;;;;;;1.35;1.25;;;;;;;7.38;89.52;99723.66;5114928;28;20051;-65
2023/01/08 00:09:16;;;;;;;5.28;1.77;;;;;;;7.40;88.76;99713.53;5115149;28;20040;-66
2023/01/08 00:11:44;;;;;;;1.23;1.13;;;;;;;7.43;89.42;99705.94;5114643;28;20039;-66
2023/01/08 00:14:13;;;;;;;2.53;1.87;;;;;;;7.43;88.63;99705.94;5114728;28;20039;-66
2023/01/08 00:16:42;;;;;;;3.35;2.70;;;;;;;7.46;88.09;99711.06;5114686;28;20046;-66
2023/01/08 00:19:11;;;;;;;3.23;2.63;;;;;;;7.46;87.96;99708.53;5114649;28;20036;-66
2023/01/08 00:21:40;;;;;;;4.65;2.67;;;;;;;7.47;88.30;99716.97;5114536;28;20043;-66
2023/01/08 00:24:10;;;;;;;3.95;2.55;;;;;;;7.46;88.05;99718.69;5114535;28;20092;-65
2023/01/08 00:26:39;;;;;;;1.80;1.70;;;;;;;7.43;88.49;99716.09;5114868;28;20043;-65
2023/01/08 00:29:08;;;;;;;1.40;1.30;;;;;;;7.45;87.98;99724.59;5114862;28;20047;-65
2023/01/08 00:31:37;;;;;;;1.55;1.48;;;;;;;7.46;88.34;99718.69;5114321;28;20039;-66
2023/01/08 00:34:06;;;;;;;2.20;1.90;;;;;;;7.47;87.56;99722.91;5114425;28;20100;-66
2023/01/08 00:36:35;;;;;;;2.50;2.27;;;;;;;7.41;87.78;99717.78;5114657;28;20498;-66
2023/01/08 00:39:04;;;;;;;1.65;1.52;;;;;;;7.39;87.88;99719.41;5114294;28;20093;-66
2023/01/08 00:41:34;;;;;;;2.50;2.15;;;;;;;7.36;88.28;99724.47;5113681;28;20047;-65
2023/01/08 00:44:03;;;;;;;2.45;2.17;;;;;;;7.34;88.01;99726.16;5114228;28;20134;-65
2023/01/08 00:46:31;;;;;;;2.25;2.05;;;;;;;7.31;88.91;99715.94;5114189;28;20044;-65
2023/01/08 00:49:01;;;;;;;7.63;3.87;;;;;;;7.30;88.54;99716.78;5114513;28;20044;-66
2023/01/08 00:51:29;;;;;;;1.50;1.40;;;;;;;7.32;88.06;99717.63;5114010;28;20061;-66
2023/01/08 00:53:58;;;;;;;3.07;2.23;;;;;;;7.31;88.08;99710.88;5114338;28;20058;-66
2023/01/08 00:56:27;;;;;;;1.67;1.58;;;;;;;7.30;88.49;99699.00;5114484;28;20101;-65
2023/01/08 00:58:57;;;;;;;1.80;1.70;;;;;;;7.33;89.22;99704.13;5114109;28;20035;-66
2023/01/08 01:01:26;;;;;;;2.45;2.25;;;;;;;7.31;88.79;99693.09;5114631;28;20061;-66
2023/01/08 01:03:55;;;;;;;3.22;3.00;;;;;;;7.31;88.56;99700.72;5113987;28;20123;-66
2023/01/08 01:06:24;;;;;;;1.65;1.55;;;;;;;7.35;88.80;99687.22;5113992;28;20079;-66
2023/01/08 01:08:53;;;;;;;2.78;2.50;;;;;;;7.39;88.96;99688.94;5114046;28;20035;-66
2023/01/08 01:11:25;;;;;;;3.73;3.30;;;;;;;7.39;88.76;99686.41;5113882;28;20036;-65
2023/01/08 01:13:55;;;;;;;3.15;2.92;;;;;;;7.37;88.58;99680.47;5113863;28;20086;-66
2023/01/08 01:16:26;;;;;;;2.83;2.63;;;;;;;7.38;88.97;99677.13;5114243;28;20126;-65
2023/01/08 01:18:56;;;;;;;1.10;1.05;;;;;;;7.38;88.21;99677.13;5113891;28;20043;-65
2023/01/08 01:21:26;;;;;;;4.13;2.83;;;;;;;7.37;88.65;99675.41;5113868;28;20557;-66
2023/01/08 01:23:57;;;;;;;2.90;2.47;;;;;;;7.37;87.76;99675.41;5114113;28;20446;-66
2023/01/08 01:26:27;;;;;;;5.10;2.10;;;;;;;7.34;87.98;99666.06;5113193;28;20051;-66
2023/01/08 01:28:58;;;;;;;2.35;2.15;;;;;;;7.35;87.63;99669.44;5113819;28;20040;-66
2023/01/08 01:31:30;;;;;;;4.22;3.42;;;;;;;7.33;87.90;99668.59;5113798;28;20043;-66
2023/01/08 01:33:59;;;;;;;1.95;1.80;;;;;;;7.33;88.00;99663.50;5113725;28;20096;-65
2023/01/08 01:36:28;;;;;;;1.52;1.42;;;;;;;7.35;87.93;99666.91;5113984;28;20032;-66
2023/01/08 01:38:58;;;;;;;3.00;2.80;;;;;;;7.33;87.99;99654.22;5113681;28;20063;-65
2023/01/08 01:41:30;;;;;;;2.50;1.58;;;;;;;7.34;87.72;99652.53;5113680;28;20039;-66
2023/01/08 01:44:00;;;;;;;3.13;2.45;;;;;;;7.35;87.91;99661.84;5113918;28;20443;-66
2023/01/08 01:46:38;;;;;;;1.10;1.05;;;;;;;7.34;87.81;99650.00;5113647;28;20125;-66
2023/01/08 01:49:12;;;;;;;6.15;3.58;;;;;;;7.33;87.75;99658.44;5113615;28;20069;-65
2023/01/08 01:51:47;;;;;;;3.25;2.17;;;;;;;7.32;87.91;99656.72;5112447;28;20044;-66
2023/01/08 01:54:17;;;;;;;2.00;1.85;;;;;;;7.31;88.22;99662.66;5116732;28;20056;-65
2023/01/08 01:56:47;;;;;;;2.05;1.30;;;;;;;7.29;87.76;99665.16;5117670;28;20375;-65
2023/01/08 01:59:16;;;;;;;2.92;2.67;;;;;;;7.27;87.72;99668.53;5118276;28;20059;-65
2023/01/08 02:01:48;;;;;;;2.08;1.85;;;;;;;7.23;87.68;99666.75;5117318;28;20078;-65
2023/01/08 02:04:17;;;;;;;0.90;0.90;;;;;;;7.22;87.85;99665.09;5117798;28;20052;-65
2023/01/08 02:06:55;;;;;;;1.52;1.42;;;;;;;7.19;87.85;99657.41;5117542;28;20039;-65
2023/01/08 02:09:36;;;;;;;1.45;1.35;;;;;;;7.18;87.92;99643.00;5117160;28;20565;-65
2023/01/08 02:12:16;;;;;;;2.20;1.85;;;;;;;7.16;88.25;99644.69;5117362;28;20067;-65
2023/01/08 02:14:59;;;;;;;1.35;1.13;;;;;;;7.12;88.33;99643.81;5117087;28;20088;-66
2023/01/08 02:17:36;;;;;;;6.85;2.60;;;;;;;7.11;88.74;99638.69;5117159;28;20545;-65
2023/01/08 02:20:11;;;;;;;3.33;1.90;;;;;;;7.10;88.67;99652.25;5117000;28;20127;-65
2023/01/08 02:22:52;;;;;;;2.17;1.63;;;;;;;7.10;89.06;99649.69;5117290;28;20130;-65
2023/01/08 02:25:37;;;;;;;1.75;1.35;;;;;;;7.12;88.36;99648.03;5116833;28;20047;-65
2023/01/08 02:28:11;;;;;;;1.85;1.50;;;;;;;7.13;88.56;99649.72;5116892;28;20039;-65
2023/01/08 02:30:41;;;;;;;11.63;2.60;;;;;;;7.12;88.83;99643.81;5116787;28;20092;-65
2023/01/08 02:33:09;;;;;;;;;;;;;;;7.14;89.10;99637.06;5115882;28;20093;-66
2023/01/08 02:35:42;;;;;;;1.67;1.45;;;;;;;7.17;89.51;99633.72;5116938;27;19965;-65
2023/01/08 02:38:15;;;;;;;1.90;1.55;;;;;;;7.22;89.10;99624.47;5117095;28;20081;-66
2023/01/08 02:40:54;;;;;;;2.65;2.40;;;;;;;7.23;88.30;99621.09;5117185;28;20469;-65
2023/01/08 02:43:30;;;;;;;1.77;1.67;;;;;;;7.24;88.38;99623.66;5116568;28;20047;-65
2023/01/08 02:46:01;;;;;;;1.48;1.38;;;;;;;7.24;88.50;99623.66;5116468;28;20484;-66
2023/01/08 02:48:40;;;;;;;1.38;1.27;;;;;;;7.24;88.54;99620.25;5116572;27;20043;-65
2023/01/08 02:51:13;;;;;;;1.98;1.83;;;;;;;7.24;88.43;99622.78;5116428;28;20051;-65
2023/01/08 02:53:45;;;;;;;12.52;4.55;;;;;;;7.24;88.35;99617.72;5116303;28;20047;-66
2023/01/08 02:56:20;;;;;;;1.67;1.58;;;;;;;7.25;87.43;99619.41;5116587;28;20071;-65
2023/01/08 02:58:53;;;;;;;2.15;1.95;;;;;;;7.25;87.74;99614.34;5116280;28;20054;-65
2023/01/08 03:01:23;;;;;;;1.60;1.50;;;;;;;7.25;88.21;99616.88;5115271;28;20065;-65
2023/01/08 03:03:56;;;;;;;3.40;2.63;;;;;;;7.25;87.77;99611.78;5115743;28;20055;-65
2023/01/08 03:06:27;;;;;;;4.20;1.70;;;;;;;7.22;87.93;99611.78;5116071;28;20396;-66
2023/01/08 03:08:58;;;;;;;3.35;2.92;;;;;;;7.19;87.44;99609.19;5116117;28;20493;-65
2023/01/08 03:11:33;;;;;;;3.13;2.88;;;;;;;7.14;87.67;99604.06;5116033;28;20493;-66
2023/01/08 03:14:09;;;;;;;0.82;0.82;;;;;;;7.12;88.71;99602.34;5115914;28;20553;-66
2023/01/08 03:16:47;;;;;;;2.10;1.70;;;;;;;7.09;88.26;99598.09;5116181;28;20047;-65
2023/01/08 03:19:20;;;;;;;4.45;4.05;;;;;;;7.08;88.24;99593.00;5115823;28;20280;-65
2023/01/08 03:21:50;;;;;;;0.77;0.77;;;;;;;7.06;88.26;99599.72;5115907;28;20039;-64
2023/01/08 03:24:22;;;;;;;1.08;1.02;;;;;;;7.03;88.38;99597.19;5116079;28;20043;-66
2023/01/08 03:26:57;;;;;;;1.63;1.52;;;;;;;7.01;88.01;99598.81;5115635;28;20051;-66
2023/01/08 03:29:28;;;;;;;2.58;2.38;;;;;;;6.99;89.00;99597.94;5115988;28;20043;-66
2023/01/08 03:32:01;;;;;;;2.17;1.63;;;;;;;6.99;88.82;99592.88;5115889;28;20036;-65
2023/01/08 03:34:36;;;;;;;1.70;1.60;;;;;;;6.99;88.63;99590.34;5115486;28;20040;-65
2023/01/08 03:37:08;;;;;;;1.75;1.35;;;;;;;6.99;89.47;99592.88;5115715;28;20070;-66
2023/01/08 03:39:42;;;;;;;1.33;1.23;;;;;;;6.98;88.50;99591.19;5115446;28;20100;-65
2023/01/08 03:42:15;;;;;;;1.75;1.65;;;;;;;6.97;89.23;99587.78;5115425;28;20552;-65
2023/01/08 03:44:45;;;;;;;1.67;1.42;;;;;;;6.98;89.59;99588.66;5115625;28;20554;-65
2023/01/08 03:47:16;;;;;;;5.85;2.80;;;;;;;6.96;89.06;99600.47;5115600;28;20117;-66
2023/01/08 03:49:46;;;;;;;2.35;1.98;;;;;;;6.96;88.98;99591.16;5115266;28;20062;-65
2023/01/08 03:52:22;;;;;;;1.20;1.10;;;;;;;6.97;88.96;99597.09;5115212;28;20043;-66
2023/01/08 03:54:52;;;;;;;6.38;3.05;;;;;;;6.96;89.24;99591.16;5114860;28;20139;-65
2023/01/08 03:57:21;;;;;;;5.30;1.73;;;;;;;6.98;89.73;99599.63;5115024;28;20490;-65
2023/01/08 03:59:51;;;;;;;3.33;1.70;;;;;;;7.02;89.98;99595.47;5115012;28;20047;-65
2023/01/08 04:02:21;;;;;;;3.10;1.70;;;;;;;7.01;89.38;99589.53;5115278;28;20043;-65
2023/01/08 04:04:50;;;;;;;1.88;1.70;;;;;;;6.99;89.54;99595.41;5114941;28;20092;-65
2023/01/08 04:07:18;;;;;;;2.65;2.42;;;;;;;7.00;89.68;99597.13;5114878;28;20040;-65
2023/01/08 04:09:47;;;;;;;1.60;1.50;;;;;;;7.00;89.81;99592.06;5115140;28;20035;-65
2023/01/08 04:12:16;;;;;;;4.47;1.77;;;;;;;6.99;89.16;99600.50;5115114;28;20510;-66
2023/01/08 04:14:45;;;;;;;1.92;1.77;;;;;;;6.97;89.13;99603.03;5114393;28;20071;-66
2023/01/08 04:17:15;;;;;;;2.03;1.93;;;;;;;6.94;89.36;99591.97;5114570;28;20089;-65
2023/01/08 04:19:44;;;;;;;4.78;2.85;;;;;;;6.94;89.98;99589.44;5114592;28;20138;-66
2023/01/08 04:22:13;;;;;;;0.83;0.83;;;;;;;6.93;89.31;99587.75;5114639;28;20548;-65
2023/01/08 04:24:43;;;;;;;1.23;1.13;;;;;;;6.93;89.84;99575.91;5114597;28;20050;-65
2023/01/08 04:27:11;;;;;;;0.50;0.50;;;;;;;6.92;89.65;99578.41;5114549;28;20126;-65
2023/01/08 04:29:40;;;;;;;2.87;1.00;;;;;;;6.96;90.19;99575.94;5114412;28;20508;-65
2023/01/08 04:32:09;;;;;;;1.67;1.57;;;;;;;6.94;89.71;99562.38;5114815;28;20084;-65
2023/01/08 04:34:39;;;;;;;1.87;1.63;;;;;;;6.93;89.76;99564.91;5114339;28;20085;-65
2023/01/08 04:37:08;;;;;;;2.25;1.83;;;;;;;6.92;89.72;99563.19;5114710;28;20048;-65
2023/01/08 04:39:37;;;;;;;1.08;1.08;;;;;;;6.91;89.75;99562.34;5114645;28;20113;-65
2023/01/08 04:42:06;;;;;;;0.88;0.85;;;;;;;6.94;89.56;99556.44;5114309;28;20046;-66
2023/01/08 04:44:35;;;;;;;1.15;0.90;;;;;;;6.96;90.27;99554.81;5114308;28;20079;-65
2023/01/08 04:47:03;;;;;;;2.20;0.75;;;;;;;6.95;89.32;99555.63;5114247;28;20047;-66
2023/01/08 04:49:32;;;;;;;4.18;3.45;;;;;;;6.95;89.84;99563.25;5114534;28;20040;-65
2023/01/08 04:52:02;;;;;;;2.37;2.17;;;;;;;6.95;90.13;99564.09;5114191;28;20397;-65
2023/01/08 04:54:32;;;;;;;1.60;1.50;;;;;;;6.91;89.08;99562.34;5113860;28;20063;-65
2023/01/08 04:57:00;;;;;;;3.53;1.88;;;;;;;6.90;89.34;99559.78;5114720;28;20055;-65
2023/01/08 04:59:29;;;;;;;1.00;0.83;;;;;;;6.88;89.87;99562.31;5114056;28;20040;-65
2023/01/08 05:01:58;;;;;;;1.10;0.95;;;;;;;6.85;89.28;99551.28;5114413;28;20100;-65
2023/01/08 05:04:27;;;;;;;3.20;2.58;;;;;;;6.85;89.67;99551.28;5113979;28;20104;-66
2023/01/08 05:06:55;;;;;;;4.45;1.75;;;;;;;6.85;89.96;99539.44;5114327;28;20043;-66
2023/01/08 05:09:26;;;;;;;0.60;0.60;;;;;;;6.86;89.58;99540.31;5114251;28;20096;-65
2023/01/08 05:11:54;;;;;;;4.85;3.50;;;;;;;6.83;90.00;99538.59;5114039;28;20060;-66
2023/01/08 05:14:23;;;;;;;4.10;1.83;;;;;;;6.81;89.26;99539.41;5114134;28;20477;-65
2023/01/08 05:16:52;;;;;;;3.38;1.77;;;;;;;6.81;90.15;99531.78;5113916;28;20329;-65
2023/01/08 05:19:21;;;;;;;3.95;3.20;;;;;;;6.82;89.82;99534.34;5114214;28;20036;-66
2023/01/08 05:21:49;;;;;;;2.58;2.10;;;;;;;6.81;89.92;99531.78;5113824;28;20036;-65
2023/01/08 05:24:18;;;;;;;1.00;1.00;;;;;;;6.81;90.01;99534.34;5113865;28;20051;-65
2023/01/08 05:26:48;;;;;;;1.25;1.15;;;;;;;6.77;89.88;99533.44;5114837;28;20345;-65
2023/01/08 05:29:17;;;;;;;2.70;2.47;;;;;;;6.79;90.13;99528.41;5118312;27;20130;-65
2023/01/08 05:31:46;;;;;;;1.23;1.10;;;;;;;6.74;89.94;99524.09;5117895;28;20126;-65
2023/01/08 05:34:15;;;;;;;1.20;1.15;;;;;;;6.73;90.39;99532.56;5117790;28;20093;-65
2023/01/08 05:36:44;;;;;;;0.85;0.85;;;;;;;6.72;90.15;99540.97;5116644;28;20451;-65
2023/01/08 05:39:13;;;;;;;4.10;3.70;;;;;;;6.68;90.60;99540.94;5117782;28;20039;-65
2023/01/08 05:41:41;;;;;;;3.90;3.60;;;;;;;6.66;90.05;99535.84;5117673;28;20070;-65
2023/01/08 05:44:12;;;;;;;2.73;2.53;;;;;;;6.63;90.44;99534.94;5117680;28;20035;-65
2023/01/08 05:46:41;;;;;;;3.30;1.40;;;;;;;6.63;90.47;99530.72;5117681;28;20771;-65
2023/01/08 05:49:10;;;;;;;2.97;2.73;;;;;;;6.60;90.85;99534.91;5117653;28;20489;-65
2023/01/08 05:51:38;;;;;;;1.70;1.60;;;;;;;6.55;90.73;99534.03;5117737;28;20038;-65
2023/01/08 05:54:07;;;;;;;1.58;1.48;;;;;;;6.49;90.79;99528.84;5117207;28;20078;-66
2023/01/08 05:56:36;;;;;;;2.63;2.00;;;;;;;6.45;90.69;99527.97;5117511;28;20058;-65
2023/01/08 05:59:05;;;;;;;4.95;2.78;;;;;;;6.40;90.68;99529.59;5117770;28;20035;-65
2023/01/08 06:01:35;;;;;;;5.53;4.33;;;;;;;6.37;90.25;99527.00;5117312;28;20036;-65
2023/01/08 06:04:04;;;;;;;5.88;3.90;;;;;;;6.33;90.97;99519.34;5117360;28;20058;-65
2023/01/08 06:06:33;;;;;;;1.88;1.77;;;;;;;6.32;90.85;99518.50;5117552;28;20051;-65
2023/01/08 06:09:02;;;;;;;1.87;1.67;;;;;;;6.30;90.64;99520.16;5117595;28;20126;-65
2023/01/08 06:11:30;;;;;;;3.25;1.65;;;;;;;6.28;90.60;99516.75;5117531;27;20124;-65
2023/01/08 06:13:59;;;;;;;2.03;1.83;;;;;;;6.31;90.76;99514.25;5117357;28;20036;-65
2023/01/08 06:16:28;;;;;;;1.15;1.10;;;;;;;6.31;90.60;99519.31;5117067;28;20093;-66
2023/01/08 06:18:58;;;;;;;2.13;1.93;;;;;;;6.31;90.67;99510.88;5116971;28;20064;-65
2023/01/08 06:21:27;;;;;;;2.72;2.30;;;;;;;6.30;90.91;99514.25;5116983;28;20105;-65
2023/01/08 06:23:56;;;;;;;2.50;2.30;;;;;;;6.33;90.98;99509.22;5117221;28;20109;-65
2023/01/08 06:26:25;;;;;;;0.90;0.90;;;;;;;6.37;90.79;99509.28;5116913;28;20039;-65
2023/01/08 06:28:53;;;;;;;2.22;1.95;;;;;;;6.39;90.82;99507.59;5117109;28;20441;-65
2023/01/08 06:31:22;;;;;;;1.50;1.40;;;;;;;6.41;90.80;99503.41;5117050;28;20160;-65
2023/01/08 06:33:51;;;;;;;1.67;1.57;;;;;;;6.41;91.41;99508.47;5116822;28;20036;-65
2023/01/08 06:36:21;;;;;;;6.57;3.67;;;;;;;6.42;91.17;99507.66;5116592;28;20036;-65
2023/01/08 06:38:50;;;;;;;4.68;2.67;;;;;;;6.43;91.51;99505.97;5115141;28;20174;-66
2023/01/08 06:41:19;;;;;;;2.72;2.13;;;;;;;6.39;90.91;99505.06;5116435;28;20044;-66
2023/01/08 06:43:47;;;;;;;4.32;2.70;;;;;;;6.33;91.19;99505.00;5116826;28;20123;-66
2023/01/08 06:46:16;;;;;;;2.60;2.20;;;;;;;6.30;91.56;99504.97;5116756;28;20505;-66
2023/01/08 06:48:45;;;;;;;2.23;2.10;;;;;;;6.24;91.23;99504.84;5116365;28;20039;-65
2023/01/08 06:51:14;;;;;;;5.95;3.35;;;;;;;6.22;91.70;99496.38;5116669;28;20442;-65
2023/01/08 06:53:44;;;;;;;3.40;2.17;;;;;;;6.22;91.43;99496.38;5116071;28;20080;-66
2023/01/08 06:56:13;;;;;;;5.20;3.58;;;;;;;6.21;91.61;99501.44;5116415;28;20040;-65
2023/01/08 06:58:42;;;;;;;2.57;2.37;;;;;;;6.19;91.45;99498.88;5116185;28;20040;-65
2023/01/08 07:01:15;;;;;;;2.95;2.67;;;;;;;6.19;91.48;99501.41;5116223;28;20101;-65
2023/01/08 07:03:44;;;;;;;12.98;3.58;;;;;;;6.22;92.00;99506.53;5116157;28;20039;-65
2023/01/08 07:06:15;;;;;;;4.20;3.72;;;;;;;6.22;91.22;99500.59;5116102;28;20126;-65
2023/01/08 07:08:46;;;;;;;2.50;2.30;;;;;;;6.24;91.60;99496.44;5116451;28;20060;-65
2023/01/08 07:11:17;;;;;;;2.88;2.58;;;;;;;6.29;91.47;99497.31;5116019;28;20050;-65
2023/01/08 07:13:46;;;;;;;7.88;3.55;;;;;;;6.31;91.89;99501.56;5115928;28;20053;-65
2023/01/08 07:16:15;;;;;;;0.57;0.57;;;;;;;6.35;91.71;99498.28;5115803;28;20081;-65
2023/01/08 07:18:44;;;;;;;;;;;;;;;6.39;91.73;99500.00;5116570;28;20046;-66
2023/01/08 07:21:12;;;;;;;1.38;1.27;;;;;;;6.40;91.69;99496.66;5115833;28;19919;-65
2023/01/08 07:23:41;;;;;;;3.65;2.60;;;;;;;6.44;91.84;99500.91;5115746;28;20036;-65
2023/01/08 07:26:12;;;;;;;2.38;1.98;;;;;;;6.48;92.22;99505.19;5115717;28;20044;-65
2023/01/08 07:28:42;;;;;;;2.97;2.20;;;;;;;6.51;91.75;99500.16;5115901;28;20043;-65
2023/01/08 07:31:11;;;;;;;1.48;1.38;;;;;;;6.57;92.26;99495.19;5114821;28;20127;-65
2023/01/08 07:33:40;;;;;;;1.50;1.40;;;;;;;6.59;91.82;99493.50;5115539;28;20085;-66
2023/01/08 07:36:09;;;;;;;3.20;2.73;;;;;;;6.62;92.50;99490.16;5115391;28;20048;-65
2023/01/08 07:38:38;;;;;;;5.70;1.75;;;;;;;6.65;91.58;99485.97;5115479;28;20336;-66
2023/01/08 07:41:12;;;;;;;2.10;1.60;;;;;;;6.69;92.19;99485.16;5115458;28;20061;-66
2023/01/08 07:43:41;;;;;;;2.08;1.92;;;;;;;6.80;92.05;99494.56;5115443;28;20047;-66
2023/01/08 07:46:10;;;;;;;5.15;4.38;;;;;;;6.84;92.08;99483.66;5115533;28;20497;-66
2023/01/08 07:48:39;;;;;;;2.60;2.37;;;;;;;6.90;92.36;99483.69;5115294;28;20039;-66
2023/01/08 07:51:09;;;;;;;2.30;2.10;;;;;;;6.97;92.46;99476.16;5115463;28;20770;-65
2023/01/08 07:53:38;;;;;;;3.33;1.75;;;;;;;7.04;92.03;99477.06;5115070;28;20284;-67
2023/01/08 07:56:10;;;;;;;3.73;3.20;;;;;;;7.07;91.83;99472.91;5115136;28;20122;-66
2023/01/08 07:58:40;;;;;;;2.78;2.50;;;;;;;7.14;92.02;99466.19;5113870;28;20280;-66
2023/01/08 08:01:11;;;;;;;1.95;1.67;;;;;;;7.21;91.17;99466.25;5115024;28;20078;-66
2023/01/08 08:03:40;;;;;;;3.78;2.13;;;;;;;7.24;91.04;99461.22;5114961;28;20040;-66
2023/01/08 08:06:09;;;;;;;3.90;2.67;;;;;;;7.28;90.71;99473.09;5115259;28;20047;-66
2023/01/08 08:08:38;;;;;;;3.03;2.72;;;;;;;7.32;90.32;99463.78;5114906;28;20138;-66
2023/01/08 08:11:10;;;;;;;2.45;2.13;;;;;;;7.36;90.03;99455.41;5114801;28;20039;-66
2023/01/08 08:13:43;;;;;;;1.42;1.33;;;;;;;7.44;89.53;99458.81;5115388;28;20401;-66
2023/01/08 08:16:12;;;;;;;2.00;1.83;;;;;;;7.56;89.45;99463.19;5112947;28;20497;-66
2023/01/08 08:18:41;;;;;;;0.80;0.80;;;;;;;7.66;89.44;99459.84;5114883;28;20461;-67
2023/01/08 08:21:10;;;;;;;2.35;2.13;;;;;;;7.76;88.27;99456.53;5114585;28;20080;-67
2023/01/08 08:23:39;;;;;;;1.15;1.08;;;;;;;7.85;87.99;99464.22;5114901;28;20039;-67
2023/01/08 08:26:08;;;;;;;2.40;2.20;;;;;;;7.93;87.66;99454.94;5114627;28;20035;-66
2023/01/08 08:28:36;;;;;;;1.95;1.40;;;;;;;8.00;86.66;99455.00;5114482;28;20067;-66
2023/01/08 08:31:07;;;;;;;0.67;0.67;;;;;;;8.06;86.21;99452.47;5114535;28;20093;-66
2023/01/08 08:33:36;;;;;;;1.70;1.60;;;;;;;8.06;85.70;99457.56;5114449;28;20054;-66
2023/01/08 08:36:05;;;;;;;2.37;2.17;;;;;;;8.10;85.33;99461.00;5114363;28;20043;-66
2023/01/08 08:38:34;;;;;;;1.80;1.70;;;;;;;8.16;84.87;99465.25;5114378;28;20100;-66
2023/01/08 08:41:03;;;;;;;0.40;0.40;;;;;;;8.26;85.37;99464.44;5114636;28;20132;-67
2023/01/08 08:43:32;;;;;;;1.23;1.13;;;;;;;8.29;84.27;99451.78;5098535;28;20044;-67
2023/01/08 08:46:00;;;;;;;1.75;1.45;;;;;;;8.25;83.43;99458.53;5093871;28;20048;-66
2023/01/08 08:48:30;;;;;;;2.20;1.23;;;;;;;8.24;83.68;99448.34;5094195;28;20446;-66
2023/01/08 08:50:59;;;;;;;1.23;1.17;;;;;;;8.24;82.78;99448.34;5094254;28;20056;-66
2023/01/08 08:53:28;;;;;;;2.30;1.90;;;;;;;8.26;82.52;99446.66;5093862;28;20044;-67
2023/01/08 08:55:58;;;;;;;1.20;1.10;;;;;;;8.26;82.77;99449.19;5093474;28;20486;-66
2023/01/08 08:58:27;;;;;;;11.20;3.75;;;;;;;8.28;81.32;99447.56;5093684;28;20044;-66
2023/01/08 09:01:01;;;;;;;0.52;0.52;;;;;;;8.27;82.17;99440.78;5093910;28;20063;-66
2023/01/08 09:03:31;;;;;;;1.65;1.48;;;;;;;8.31;80.78;99439.94;5092572;28;20147;-66
2023/01/08 09:06:00;;;;;;;3.38;2.10;;;;;;;8.34;81.37;99439.94;5110073;28;20048;-66
2023/01/08 09:08:29;;;;;;;3.45;1.50;;;;;;;8.38;81.41;99447.59;5113931;28;20040;-66
2023/01/08 09:10:58;;;;;;;2.57;1.97;;;;;;;8.38;80.56;99434.03;5114201;28;20040;-66
2023/01/08 09:13:26;;;;;;;1.25;1.15;;;;;;;8.40;81.16;99437.41;5113929;28;20375;-66
2023/01/08 09:15:58;;;;;;;2.03;1.50;;;;;;;8.44;80.64;99434.06;5113705;28;20105;-67
2023/01/08 09:18:27;;;;;;;2.47;2.28;;;;;;;8.44;80.04;99429.84;5113890;28;20288;-66
2023/01/08 09:20:57;;;;;;;2.15;1.55;;;;;;;8.44;79.53;99431.53;5114177;28;20067;-66
2023/01/08 09:23:26;;;;;;;2.30;1.83;;;;;;;8.44;79.86;99427.28;5113904;28;20508;-66
2023/01/08 09:25:59;;;;;;;0.85;0.85;;;;;;;8.45;79.41;99410.31;5113781;28;20127;-66
2023/01/08 09:28:28;;;;;;;1.98;1.88;;;;;;;8.48;79.89;99412.88;5113782;28;20427;-66
2023/01/08 09:31:00;;;;;;;1.83;1.70;;;;;;;8.48;79.71;99410.34;5113856;28;20392;-66
2023/01/08 09:33:30;;;;;;;1.23;1.13;;;;;;;8.45;79.64;99405.22;5114061;28;20113;-66
2023/01/08 09:36:00;;;;;;;2.22;1.73;;;;;;;8.48;79.01;99400.16;5113642;28;20063;-66
2023/01/08 09:38:29;;;;;;;1.13;1.08;;;;;;;8.51;78.86;99385.78;5113670;28;20044;-66
2023/01/08 09:41:02;;;;;;;1.60;1.50;;;;;;;8.58;79.26;99391.72;5113677;28;20081;-66
2023/01/08 09:43:35;;;;;;;1.95;1.85;;;;;;;8.61;78.30;99387.47;5113645;28;20464;-66
2023/01/08 09:46:07;;;;;;;1.60;1.50;;;;;;;8.63;78.94;99384.94;5113541;28;20051;-66
2023/01/08 09:48:38;;;;;;;2.35;1.85;;;;;;;8.63;78.84;99374.78;5113494;28;20035;-66
2023/01/08 09:51:10;;;;;;;3.15;2.72;;;;;;;8.64;77.78;99359.50;5113363;28;20036;-65
2023/01/08 09:53:41;;;;;;;2.40;1.35;;;;;;;8.69;78.20;99349.34;5113299;28;20044;-66
2023/01/08 09:56:14;;;;;;;2.53;2.28;;;;;;;8.72;78.43;99355.28;5113445;28;20054;-66
2023/01/08 09:58:47;;;;;;;1.33;1.23;;;;;;;8.73;78.63;99351.06;5113524;28;20044;-64
2023/01/08 10:01:20;;;;;;;2.72;2.47;;;;;;;8.73;77.54;99351.06;5113551;28;20614;-65
2023/01/08 10:03:53;;;;;;;1.23;1.13;;;;;;;8.72;78.01;99342.56;5113635;28;20047;-64
2023/01/08 10:06:24;;;;;;;0.55;0.55;;;;;;;8.69;77.92;99334.06;5113443;28;20052;-65
2023/01/08 10:08:53;;;;;;;3.88;1.88;;;;;;;8.72;78.10;99329.84;5113387;28;20059;-64
2023/01/08 10:11:24;;;;;;;0.83;0.83;;;;;;;8.74;77.97;99329.84;5113427;28;20550;-64
2023/01/08 10:13:55;;;;;;;1.08;1.02;;;;;;;8.72;78.04;99318.81;5114531;28;20039;-65
2023/01/08 10:16:30;;;;;;;2.97;1.58;;;;;;;8.67;77.79;99315.41;5116988;28;20054;-65
2023/01/08 10:19:00;;;;;;;1.80;1.70;;;;;;;8.62;77.22;99301.84;5117382;28;20485;-64
2023/01/08 10:21:32;;;;;;;1.45;1.35;;;;;;;8.58;76.98;99300.16;5117174;28;20130;-64
2023/01/08 10:24:01;;;;;;;4.55;1.05;;;;;;;8.60;77.75;99299.31;5117347;27;20060;-64
2023/01/08 10:26:31;;;;;;;1.23;1.13;;;;;;;8.64;77.15;99289.97;5117244;28;20044;-65
2023/01/08 10:29:08;;;;;;;1.92;1.63;;;;;;;8.67;77.42;99285.75;5116889;28;20047;-64
2023/01/08 10:31:47;;;;;;;1.55;1.45;;;;;;;8.68;78.06;99289.16;5116856;28;20086;-65
2023/01/08 10:34:28;;;;;;;2.38;1.83;;;;;;;8.65;77.39;99277.28;5117044;28;20393;-65
2023/01/08 10:36:58;;;;;;;1.52;1.42;;;;;;;8.65;77.32;99282.34;5116687;28;20071;-66
2023/01/08 10:39:29;;;;;;;1.27;1.17;;;;;;;8.64;77.56;99279.78;5116684;28;20101;-65
2023/01/08 10:42:05;;;;;;;1.33;1.17;;;;;;;8.66;78.18;99275.59;5116622;28;20039;-65
2023/01/08 10:44:34;;;;;;;1.20;1.10;;;;;;;8.63;77.38;99278.13;5116647;28;20044;-65
2023/01/08 10:47:05;;;;;;;0.65;0.65;;;;;;;8.60;78.18;99276.41;5116457;28;20066;-65
2023/01/08 10:49:40;;;;;;;1.05;0.98;;;;;;;8.63;78.08;99273.03;5116777;28;20036;-65
2023/01/08 10:52:25;;;;;;;2.63;2.40;;;;;;;8.61;77.72;99260.28;5116754;27;20497;-65
2023/01/08 10:54:54;;;;;;;2.05;1.85;;;;;;;8.65;77.87;99256.06;5116103;28;20048;-65
2023/01/08 10:57:26;;;;;;;1.85;1.73;;;;;;;8.66;77.38;99247.59;5116214;28;20040;-65
2023/01/08 10:59:56;;;;;;;0.73;0.73;;;;;;;8.65;78.30;99240.81;5116305;28;20533;-65
2023/01/08 11:02:33;;;;;;;0.57;0.57;;;;;;;8.67;77.85;99239.09;5116209;28;20039;-65
2023/01/08 11:05:10;;;;;;;3.38;2.70;;;;;;;8.64;78.28;99239.09;5116112;28;20071;-65
2023/01/08 11:07:40;;;;;;;2.28;1.75;;;;;;;8.67;78.56;99228.94;5116399;28;20036;-65
2023/01/08 11:10:23;;;;;;;2.25;2.05;;;;;;;8.68;78.29;99225.56;5116114;28;20050;-65
2023/01/08 11:12:56;;;;;;;1.45;1.35;;;;;;;8.70;77.36;99218.75;5116309;28;20051;-65
2023/01/08 11:15:32;;;;;;;2.05;1.55;;;;;;;8.72;78.20;99212.81;5114825;28;20039;-65
2023/01/08 11:18:20;;;;;;;0.88;0.85;;;;;;;8.71;78.00;99195.00;5115879;28;20047;-65
2023/01/08 11:20:50;;;;;;;1.30;1.20;;;;;;;8.69;77.88;99191.63;5115734;28;20074;-65
2023/01/08 11:23:24;;;;;;;4.72;2.15;;;;;;;8.67;77.83;99191.63;5116205;28;20044;-65
2023/01/08 11:26:01;;;;;;;1.25;1.15;;;;;;;8.68;78.16;99200.09;5115412;27;20044;-65
2023/01/08 11:28:42;;;;;;;2.08;1.80;;;;;;;8.65;78.00;99195.88;5115988;28;20462;-65
2023/01/08 11:31:16;;;;;;;0.88;0.85;;;;;;;8.65;77.52;99207.75;5115693;28;20097;-65
2023/01/08 11:33:50;;;;;;;2.88;2.45;;;;;;;8.61;77.43;99198.44;5115566;28;20062;-65
2023/01/08 11:36:26;;;;;;;3.78;1.77;;;;;;;8.62;78.21;99197.56;5115592;28;20078;-65
2023/01/08 11:38:56;;;;;;;0.98;0.98;;;;;;;8.61;77.50;99188.25;5115708;28;20035;-65
2023/01/08 11:41:39;;;;;;;1.88;1.73;;;;;;;8.58;77.61;99178.94;5115502;28;20130;-65
2023/01/08 11:44:25;;;;;;;1.77;1.63;;;;;;;8.65;77.77;99179.75;5115383;28;20503;-65
2023/01/08 11:47:07;;;;;;;4.05;1.95;;;;;;;8.66;77.92;99187.38;5114136;28;20039;-66
2023/01/08 11:49:58;;;;;;;0.70;0.70;;;;;;;8.69;77.96;99191.63;5115320;28;20085;-65
2023/01/08 11:52:43;;;;;;;3.10;1.92;;;;;;;8.71;78.80;99184.81;5115183;28;20050;-65
2023/01/08 11:55:24;;;;;;;0.98;0.95;;;;;;;8.70;78.35;99172.97;5115133;28;20063;-65
2023/01/08 11:58:06;;;;;;;0.82;0.82;;;;;;;8.70;78.39;99172.97;5115366;28;20100;-65
2023/01/08 12:00:50;;;;;;;1.23;1.13;;;;;;;8.71;78.59;99169.56;5115028;28;20043;-65